Time;durP1;ratioP1;P1;durP2;ratioP2;P2;SDS_P1;SDS_P2;PMS_P1;PMS_P2;Temp;Humidity;BMP_temperature;BMP_pressure;BME280_temperature;BME280_humidity;BME280_pressure;Samples;Min_cycle;Max_cycle;Signal;HPM_P1;HPM_P2
2023/06/12 00:04:33;;;;;;;2.45;2.25;;;;;;;;;;10497798;28;20094;-58
2023/06/12 00:09:34;;;;;;;2.35;2.00;;;;;;;;;;10502467;28;20016;-59
2023/06/12 00:14:35;;;;;;;3.40;2.10;;;;;;;;;;10498028;28;20037;-59
2023/06/12 00:19:35;;;;;;;3.13;1.83;;;;;;;;;;10496251;28;20472;-59
2023/06/12 00:24:36;;;;;;;1.95;1.75;;;;;;;;;;10472361;28;20291;-59
2023/06/12 00:29:36;;;;;;;2.00;1.80;;;;;;;;;;10498356;28;20021;-59
2023/06/12 00:34:37;;;;;;;3.15;1.88;;;;;;;;;;10495318;28;20051;-59
2023/06/12 00:39:37;;;;;;;2.47;1.75;;;;;;;;;;10492342;28;20029;-59
2023/06/12 00:44:38;;;;;;;3.95;2.65;;;;;;;;;;10459389;28;20031;-59
2023/06/12 00:49:39;;;;;;;3.40;1.88;;;;;;;;;;10471377;28;20024;-60
2023/06/12 00:54:41;;;;;;;2.70;1.85;;;;;;;;;;10486081;28;20471;-61
2023/06/12 00:59:41;;;;;;;4.38;2.08;;;;;;;;;;10491906;28;20025;-60
2023/06/12 01:04:42;;;;;;;1.92;1.73;;;;;;;;;;10495233;28;20024;-60
2023/06/12 01:09:53;;;;;;;6.25;2.28;;;;;;;;;;10489850;28;20033;-60
2023/06/12 01:14:53;;;;;;;5.10;2.15;;;;;;;;;;10480851;28;20033;-59
2023/06/12 01:19:56;;;;;;;2.22;2.03;;;;;;;;;;10494805;28;20024;-60
2023/06/12 01:25:38;;;;;;;2.17;1.98;;;;;;;;;;10493741;28;20028;-60
2023/06/12 01:31:14;;;;;;;2.53;2.10;;;;;;;;;;10479270;28;20500;-60
2023/06/12 01:36:19;;;;;;;3.40;2.20;;;;;;;;;;10476082;28;20392;-59
2023/06/12 01:41:23;;;;;;;2.38;2.17;;;;;;;;;;10478800;28;20048;-59
2023/06/12 01:46:23;;;;;;;2.90;2.15;;;;;;;;;;10480201;28;20051;-60
2023/06/12 01:51:24;;;;;;;6.97;2.22;;;;;;;;;;10492229;28;20479;-61
2023/06/12 01:56:25;;;;;;;2.45;2.08;;;;;;;;;;10495215;28;20553;-60
2023/06/12 02:01:26;;;;;;;2.15;1.95;;;;;;;;;;10492301;28;20892;-59
2023/06/12 02:06:27;;;;;;;3.55;2.20;;;;;;;;;;10469026;28;20033;-59
2023/06/12 02:11:27;;;;;;;2.60;2.40;;;;;;;;;;10496768;28;20032;-60
2023/06/12 02:16:28;;;;;;;3.15;2.42;;;;;;;;;;10471384;28;20029;-62
2023/06/12 02:21:28;;;;;;;3.78;2.05;;;;;;;;;;10475478;28;20039;-60
2023/06/12 02:26:29;;;;;;;2.53;2.13;;;;;;;;;;10471764;28;20040;-59
2023/06/12 02:31:30;;;;;;;5.07;2.47;;;;;;;;;;10473898;28;20055;-60
2023/06/12 02:36:31;;;;;;;3.85;2.25;;;;;;;;;;10497281;28;20383;-59
2023/06/12 02:41:31;;;;;;;3.25;2.47;;;;;;;;;;10494174;28;20147;-59
2023/06/12 02:46:32;;;;;;;2.53;2.30;;;;;;;;;;10498920;28;20041;-59
2023/06/12 02:51:32;;;;;;;2.60;2.17;;;;;;;;;;10491723;28;20036;-59
2023/06/12 02:56:33;;;;;;;2.40;2.20;;;;;;;;;;10491288;28;20024;-60
2023/06/12 03:01:33;;;;;;;2.78;2.33;;;;;;;;;;10491112;28;20036;-65
2023/06/12 03:06:34;;;;;;;2.58;2.33;;;;;;;;;;10491805;28;20027;-65
2023/06/12 03:11:38;;;;;;;2.67;2.38;;;;;;;;;;10491674;28;20484;-65
2023/06/12 03:16:39;;;;;;;2.22;2.03;;;;;;;;;;10491769;28;20036;-66
2023/06/12 03:21:40;;;;;;;2.63;2.42;;;;;;;;;;10491666;28;20078;-65
2023/06/12 03:26:41;;;;;;;2.50;2.30;;;;;;;;;;10491729;28;20025;-66
2023/06/12 03:31:42;;;;;;;4.95;2.20;;;;;;;;;;10490483;28;20048;-65
2023/06/12 03:36:43;;;;;;;4.43;2.47;;;;;;;;;;10491568;28;20594;-65
2023/06/12 03:41:53;;;;;;;3.08;2.20;;;;;;;;;;10489957;28;20066;-66
2023/06/12 03:46:54;;;;;;;4.05;2.50;;;;;;;;;;10491323;28;20035;-66
2023/06/12 03:51:55;;;;;;;4.20;2.00;;;;;;;;;;10491572;28;20059;-65
2023/06/12 03:56:55;;;;;;;2.60;2.28;;;;;;;;;;10498174;28;20036;-59
2023/06/12 04:01:58;;;;;;;2.33;2.13;;;;;;;;;;10498283;28;20032;-58
2023/06/12 04:06:59;;;;;;;3.33;2.08;;;;;;;;;;10495838;28;20036;-58
2023/06/12 04:12:00;;;;;;;4.03;2.20;;;;;;;;;;10498017;28;20495;-59
2023/06/12 04:17:01;;;;;;;2.40;2.20;;;;;;;;;;10497353;28;20028;-58
2023/06/12 04:22:02;;;;;;;3.28;2.50;;;;;;;;;;10497184;28;20029;-59
2023/06/12 04:27:09;;;;;;;2.70;2.40;;;;;;;;;;10497496;28;20020;-59
2023/06/12 04:32:13;;;;;;;3.83;2.43;;;;;;;;;;10497212;28;20040;-59
2023/06/12 04:37:18;;;;;;;5.82;2.65;;;;;;;;;;10497392;28;20056;-58
2023/06/12 04:42:19;;;;;;;2.25;2.00;;;;;;;;;;10496976;28;20099;-59
2023/06/12 04:47:20;;;;;;;2.63;2.42;;;;;;;;;;10501332;28;20031;-59
2023/06/12 04:52:22;;;;;;;2.47;2.28;;;;;;;;;;10493849;28;20031;-59
2023/06/12 04:57:23;;;;;;;2.40;2.20;;;;;;;;;;10495927;28;20025;-59
2023/06/12 05:02:23;;;;;;;2.65;2.15;;;;;;;;;;10495354;28;20024;-61
2023/06/12 05:07:24;;;;;;;2.53;2.20;;;;;;;;;;10494455;28;20114;-60
2023/06/12 05:12:25;;;;;;;4.07;2.40;;;;;;;;;;10495325;28;20032;-64
2023/06/12 05:17:27;;;;;;;4.72;2.40;;;;;;;;;;10491175;28;20033;-61
2023/06/12 05:22:28;;;;;;;3.22;2.00;;;;;;;;;;10494973;28;20044;-60
2023/06/12 05:27:28;;;;;;;2.85;2.53;;;;;;;;;;10494359;28;20025;-60
2023/06/12 05:32:29;;;;;;;3.10;2.28;;;;;;;;;;10493443;28;20048;-58
2023/06/12 05:37:29;;;;;;;2.38;2.17;;;;;;;;;;10493318;28;20020;-61
2023/06/12 05:42:30;;;;;;;2.55;2.35;;;;;;;;;;10493215;28;20024;-60
2023/06/12 05:47:32;;;;;;;5.18;2.08;;;;;;;;;;10493596;28;20025;-60
2023/06/12 05:52:33;;;;;;;2.20;2.00;;;;;;;;;;10493544;28;20024;-60
2023/06/12 05:57:34;;;;;;;1.98;1.85;;;;;;;;;;10491114;28;20021;-60
2023/06/12 06:02:35;;;;;;;1.88;1.77;;;;;;;;;;10488578;28;20036;-60
2023/06/12 06:07:36;;;;;;;12.50;1.77;;;;;;;;;;10491286;28;20590;-62
2023/06/12 06:12:37;;;;;;;7.70;2.00;;;;;;;;;;10488875;28;20051;-61
2023/06/12 06:17:37;;;;;;;4.20;1.98;;;;;;;;;;10491337;28;20020;-62
2023/06/12 06:22:38;;;;;;;3.28;1.52;;;;;;;;;;10493003;28;20039;-62
2023/06/12 06:27:38;;;;;;;6.32;2.03;;;;;;;;;;10491779;28;20029;-61
2023/06/12 06:32:39;;;;;;;3.08;1.92;;;;;;;;;;10491164;28;20496;-62
2023/06/12 06:37:40;;;;;;;3.08;2.03;;;;;;;;;;10492028;28;20028;-62
2023/06/12 06:42:41;;;;;;;2.85;1.80;;;;;;;;;;10492158;28;20036;-63
2023/06/12 06:47:42;;;;;;;4.93;1.88;;;;;;;;;;10496437;28;20075;-62
2023/06/12 06:52:42;;;;;;;3.65;1.90;;;;;;;;;;10490663;28;20017;-61
2023/06/12 06:57:43;;;;;;;2.13;1.70;;;;;;;;;;10491031;28;20037;-62
2023/06/12 07:02:45;;;;;;;3.25;1.63;;;;;;;;;;10491269;28;20028;-62
2023/06/12 07:07:47;;;;;;;3.70;2.00;;;;;;;;;;10489737;28;20289;-61
2023/06/12 07:12:56;;;;;;;2.33;1.85;;;;;;;;;;10488865;28;20020;-62
2023/06/12 07:17:56;;;;;;;1.70;1.60;;;;;;;;;;10490292;28;20024;-61
2023/06/12 07:22:57;;;;;;;1.70;1.60;;;;;;;;;;10492069;28;20047;-61
2023/06/12 07:27:58;;;;;;;2.45;1.77;;;;;;;;;;10493877;28;20376;-61
2023/06/12 07:32:58;;;;;;;2.63;2.00;;;;;;;;;;10498636;28;20036;-62
2023/06/12 07:37:59;;;;;;;3.22;2.17;;;;;;;;;;10499126;28;20028;-66
2023/06/12 07:43:00;;;;;;;2.67;2.22;;;;;;;;;;10501256;28;20028;-61
2023/06/12 07:48:00;;;;;;;2.90;2.22;;;;;;;;;;10499853;28;20496;-64
2023/06/12 07:53:01;;;;;;;3.03;2.40;;;;;;;;;;10497864;28;20016;-61
2023/06/12 07:58:02;;;;;;;4.80;2.30;;;;;;;;;;10497687;28;20033;-61
2023/06/12 08:03:03;;;;;;;3.65;2.38;;;;;;;;;;10497647;28;20375;-62
2023/06/12 08:08:03;;;;;;;2.45;2.25;;;;;;;;;;10496952;28;20046;-62
2023/06/12 08:13:04;;;;;;;2.60;2.40;;;;;;;;;;10496872;28;20502;-61
2023/06/12 08:18:05;;;;;;;4.32;2.80;;;;;;;;;;10497013;28;20472;-61
2023/06/12 08:23:06;;;;;;;4.32;2.30;;;;;;;;;;10496451;28;20039;-64
2023/06/12 08:28:06;;;;;;;6.38;2.55;;;;;;;;;;10497194;28;20030;-65
2023/06/12 08:33:08;;;;;;;4.82;2.25;;;;;;;;;;10497243;28;20496;-61
2023/06/12 08:38:08;;;;;;;3.03;2.67;;;;;;;;;;10495965;28;20398;-61
2023/06/12 08:43:10;;;;;;;2.85;2.55;;;;;;;;;;10499726;28;20036;-61
2023/06/12 08:48:15;;;;;;;3.47;2.65;;;;;;;;;;10495028;28;20492;-61
2023/06/12 08:53:16;;;;;;;5.60;2.95;;;;;;;;;;10494793;28;20052;-62
2023/06/12 08:58:17;;;;;;;6.72;3.03;;;;;;;;;;10494517;28;20534;-61
2023/06/12 09:03:19;;;;;;;3.05;2.58;;;;;;;;;;10496852;28;20039;-63
2023/06/12 09:08:20;;;;;;;4.05;2.28;;;;;;;;;;10494318;28;20074;-62
2023/06/12 09:13:21;;;;;;;3.95;2.47;;;;;;;;;;10495972;28;20028;-61
2023/06/12 09:18:22;;;;;;;3.58;2.50;;;;;;;;;;10496038;28;20089;-62
2023/06/12 09:23:22;;;;;;;3.30;2.55;;;;;;;;;;10494797;28;20024;-61
2023/06/12 09:28:25;;;;;;;2.75;2.42;;;;;;;;;;10495034;28;20032;-61
2023/06/12 09:33:28;;;;;;;3.35;2.72;;;;;;;;;;10493797;28;20400;-62
2023/06/12 09:38:36;;;;;;;4.47;3.00;;;;;;;;;;10494662;28;20638;-61
2023/06/12 09:43:36;;;;;;;2.67;2.28;;;;;;;;;;10497413;28;20050;-61
2023/06/12 09:48:39;;;;;;;6.93;3.10;;;;;;;;;;10493725;28;20034;-65
2023/06/12 09:53:40;;;;;;;3.63;2.95;;;;;;;;;;10492733;28;20036;-65
2023/06/12 09:58:47;;;;;;;2.90;2.60;;;;;;;;;;10489460;28;20039;-65
2023/06/12 10:03:53;;;;;;;5.87;3.00;;;;;;;;;;10487190;28;20540;-66
2023/06/12 10:08:55;;;;;;;3.35;3.05;;;;;;;;;;10491567;28;20499;-65
2023/06/12 10:13:56;;;;;;;7.85;2.90;;;;;;;;;;10493165;28;20027;-66
2023/06/12 10:18:58;;;;;;;4.38;3.20;;;;;;;;;;10491170;28;20064;-62
2023/06/12 10:23:59;;;;;;;6.85;3.17;;;;;;;;;;10491793;28;20024;-65
2023/06/12 10:28:59;;;;;;;3.47;2.80;;;;;;;;;;10491557;28;20031;-63
2023/06/12 10:34:12;;;;;;;3.30;2.97;;;;;;;;;;10493035;28;20056;-62
2023/06/12 10:39:25;;;;;;;4.97;3.15;;;;;;;;;;10491749;28;20176;-61
2023/06/12 10:44:44;;;;;;;4.45;2.95;;;;;;;;;;10495578;28;20468;-62
2023/06/12 10:49:58;;;;;;;3.30;3.00;;;;;;;;;;10492478;28;20040;-61
2023/06/12 10:55:27;;;;;;;4.85;2.65;;;;;;;;;;10491345;28;20468;-66
2023/06/12 11:00:37;;;;;;;5.90;3.00;;;;;;;;;;10477974;28;20098;-62
2023/06/12 11:05:46;;;;;;;2.67;2.45;;;;;;;;;;10490236;28;20036;-61
2023/06/12 11:10:47;;;;;;;4.55;2.55;;;;;;;;;;10491414;28;20035;-61
2023/06/12 11:15:48;;;;;;;3.53;2.45;;;;;;;;;;10491456;28;20377;-61
2023/06/12 11:20:54;;;;;;;3.08;2.75;;;;;;;;;;10490726;28;20105;-64
2023/06/12 11:25:57;;;;;;;2.72;2.47;;;;;;;;;;10490587;28;20154;-62
2023/06/12 11:30:57;;;;;;;3.40;2.50;;;;;;;;;;10488710;28;20049;-62
2023/06/12 11:36:00;;;;;;;2.85;2.55;;;;;;;;;;10492289;28;20534;-63
2023/06/12 11:41:01;;;;;;;2.83;2.60;;;;;;;;;;10489655;28;20111;-61
2023/06/12 11:46:03;;;;;;;3.95;2.63;;;;;;;;;;10487633;28;20021;-62
2023/06/12 11:51:04;;;;;;;2.60;2.40;;;;;;;;;;10489256;28;20492;-60
2023/06/12 11:56:05;;;;;;;4.50;2.50;;;;;;;;;;10490186;28;20503;-61
2023/06/12 12:01:22;;;;;;;2.80;2.60;;;;;;;;;;10482025;28;20029;-62
2023/06/12 12:06:23;;;;;;;8.20;2.70;;;;;;;;;;10491732;28;20047;-64
2023/06/12 12:11:29;;;;;;;6.50;3.10;;;;;;;;;;10496105;28;20035;-61
2023/06/12 12:16:38;;;;;;;5.13;2.75;;;;;;;;;;10494272;28;20506;-62
2023/06/12 12:21:39;;;;;;;5.35;3.15;;;;;;;;;;10495742;28;20064;-61
2023/06/12 12:26:57;;;;;;;5.40;2.85;;;;;;;;;;10497001;28;20391;-61
2023/06/12 12:31:58;;;;;;;4.70;2.80;;;;;;;;;;10483538;28;20053;-61
2023/06/12 12:36:58;;;;;;;5.82;2.90;;;;;;;;;;10496444;28;20032;-62
2023/06/12 12:41:59;;;;;;;6.57;2.80;;;;;;;;;;10496899;28;20029;-63
2023/06/12 12:46:59;;;;;;;5.13;2.95;;;;;;;;;;10495493;28;20024;-62
2023/06/12 12:52:00;;;;;;;5.38;2.88;;;;;;;;;;10495961;28;20024;-61
2023/06/12 12:57:00;;;;;;;6.32;3.33;;;;;;;;;;10495335;28;20043;-62
2023/06/12 13:02:01;;;;;;;3.22;2.90;;;;;;;;;;10495565;28;20056;-61
2023/06/12 13:07:03;;;;;;;7.13;2.97;;;;;;;;;;10494692;28;20043;-61
2023/06/12 13:12:04;;;;;;;4.10;3.08;;;;;;;;;;10492394;28;20048;-61
2023/06/12 13:17:05;;;;;;;4.63;3.05;;;;;;;;;;10493723;28;20039;-63
2023/06/12 13:22:06;;;;;;;3.85;2.92;;;;;;;;;;10495094;28;20377;-63
2023/06/12 13:27:07;;;;;;;4.38;2.75;;;;;;;;;;10492527;28;20047;-61
2023/06/12 13:32:07;;;;;;;4.07;3.10;;;;;;;;;;10483512;28;20094;-67
2023/06/12 13:37:08;;;;;;;7.05;3.38;;;;;;;;;;10494397;28;20093;-67
2023/06/12 13:42:10;;;;;;;8.95;3.35;;;;;;;;;;10495650;28;20046;-67
2023/06/12 13:47:10;;;;;;;3.53;3.10;;;;;;;;;;10493806;28;20029;-67
2023/06/12 13:52:13;;;;;;;3.72;2.83;;;;;;;;;;10494796;28;20380;-67
2023/06/12 13:57:14;;;;;;;3.17;2.90;;;;;;;;;;10502354;28;20062;-65
2023/06/12 14:02:14;;;;;;;4.63;4.00;;;;;;;;;;10483927;28;20040;-64
2023/06/12 14:07:16;;;;;;;4.55;3.55;;;;;;;;;;10467421;28;20051;-66
2023/06/12 14:12:17;;;;;;;6.32;3.70;;;;;;;;;;10492748;28;20055;-66
2023/06/12 14:17:17;;;;;;;7.60;3.70;;;;;;;;;;10484104;28;20038;-66
2023/06/12 14:22:18;;;;;;;4.55;3.33;;;;;;;;;;10472773;28;20020;-66
2023/06/12 14:27:18;;;;;;;6.78;3.30;;;;;;;;;;10490238;28;20598;-67
2023/06/12 14:32:19;;;;;;;7.20;3.92;;;;;;;;;;10489695;28;20071;-67
2023/06/12 14:37:20;;;;;;;10.88;3.70;;;;;;;;;;10478129;28;20377;-63
2023/06/12 14:42:20;;;;;;;8.20;3.65;;;;;;;;;;10487318;28;20027;-68
2023/06/12 14:47:21;;;;;;;5.45;3.40;;;;;;;;;;10485670;28;20056;-67
2023/06/12 14:52:21;;;;;;;5.90;3.50;;;;;;;;;;10485705;28;20024;-67
2023/06/12 14:57:22;;;;;;;6.07;3.65;;;;;;;;;;10489932;28;20482;-67
2023/06/12 15:02:23;;;;;;;13.02;4.07;;;;;;;;;;10488836;28;20392;-66
2023/06/12 15:07:23;;;;;;;5.75;3.35;;;;;;;;;;10488597;28;20050;-68
2023/06/12 15:12:24;;;;;;;8.68;3.70;;;;;;;;;;10487411;28;20082;-68
2023/06/12 15:17:25;;;;;;;5.78;3.80;;;;;;;;;;10483031;28;20060;-61
2023/06/12 15:22:26;;;;;;;9.07;4.15;;;;;;;;;;10483942;28;20086;-67
2023/06/12 15:27:26;;;;;;;4.32;3.53;;;;;;;;;;10485512;28;20039;-67
2023/06/12 15:32:27;;;;;;;5.57;3.58;;;;;;;;;;10482883;28;20599;-67
2023/06/12 15:37:27;;;;;;;7.95;3.75;;;;;;;;;;10485732;28;20545;-68
2023/06/12 15:42:28;;;;;;;6.38;3.55;;;;;;;;;;10487814;28;20042;-63
2023/06/12 15:47:28;;;;;;;6.03;3.72;;;;;;;;;;10480308;28;20020;-65
2023/06/12 15:52:29;;;;;;;7.78;4.35;;;;;;;;;;10492070;28;20040;-67
2023/06/12 15:57:29;;;;;;;7.53;4.10;;;;;;;;;;10486803;28;20024;-67
2023/06/12 16:02:30;;;;;;;13.55;3.97;;;;;;;;;;10495550;28;20028;-66
2023/06/12 16:07:31;;;;;;;8.38;4.30;;;;;;;;;;10495144;28;20424;-61
2023/06/12 16:12:32;;;;;;;7.47;4.45;;;;;;;;;;10499599;28;20028;-61
2023/06/12 16:17:32;;;;;;;8.48;4.18;;;;;;;;;;10493868;28;20032;-61
2023/06/12 16:22:33;;;;;;;8.90;4.00;;;;;;;;;;10490009;28;20021;-63
2023/06/12 16:27:33;;;;;;;12.77;4.25;;;;;;;;;;10491896;28;20036;-61
2023/06/12 16:32:34;;;;;;;8.20;3.92;;;;;;;;;;10491681;28;20045;-61
2023/06/12 16:37:35;;;;;;;14.15;4.35;;;;;;;;;;10489598;28;20044;-62
2023/06/12 16:42:36;;;;;;;8.75;3.33;;;;;;;;;;10493625;28;20067;-61
2023/06/12 16:47:37;;;;;;;11.02;4.03;;;;;;;;;;10492696;28;20020;-62
2023/06/12 16:52:37;;;;;;;11.35;4.00;;;;;;;;;;10493833;28;20030;-61
2023/06/12 16:57:38;;;;;;;6.85;3.80;;;;;;;;;;10488224;28;20035;-61
2023/06/12 17:02:39;;;;;;;6.15;3.40;;;;;;;;;;10488731;28;20028;-61
2023/06/12 17:07:40;;;;;;;7.25;3.80;;;;;;;;;;10479518;28;20476;-61
2023/06/12 17:12:40;;;;;;;7.93;3.60;;;;;;;;;;10501295;28;20530;-61
2023/06/12 17:17:41;;;;;;;14.23;3.13;;;;;;;;;;10493769;28;20028;-61
2023/06/12 17:22:41;;;;;;;5.05;3.28;;;;;;;;;;10494195;28;20028;-64
2023/06/12 17:27:42;;;;;;;7.60;3.50;;;;;;;;;;10493221;28;20025;-63
2023/06/12 17:32:43;;;;;;;5.68;3.50;;;;;;;;;;10490989;28;20049;-61
2023/06/12 17:37:44;;;;;;;6.57;3.30;;;;;;;;;;10487939;28;20149;-62
2023/06/12 17:42:45;;;;;;;5.63;3.05;;;;;;;;;;10489991;28;20024;-61
2023/06/12 17:47:46;;;;;;;4.45;3.10;;;;;;;;;;10484913;28;20082;-64
2023/06/12 17:52:47;;;;;;;6.68;3.17;;;;;;;;;;10483090;28;20154;-61
2023/06/12 17:57:47;;;;;;;7.10;3.65;;;;;;;;;;10487755;28;20028;-61
2023/06/12 18:02:48;;;;;;;4.15;2.97;;;;;;;;;;10475474;28;20032;-61
2023/06/12 18:07:48;;;;;;;3.15;2.95;;;;;;;;;;10488169;28;20150;-61
2023/06/12 18:12:49;;;;;;;6.72;3.08;;;;;;;;;;10485222;28;20024;-61
2023/06/12 18:17:50;;;;;;;3.20;2.90;;;;;;;;;;10483033;28;20036;-62
2023/06/12 18:22:51;;;;;;;5.38;3.10;;;;;;;;;;10489010;28;20463;-61
2023/06/12 18:27:51;;;;;;;5.45;3.20;;;;;;;;;;10479545;28;20032;-61
2023/06/12 18:32:52;;;;;;;5.30;2.90;;;;;;;;;;10478687;28;20084;-62
2023/06/12 18:37:55;;;;;;;6.88;3.17;;;;;;;;;;10483114;28;20021;-61
2023/06/12 18:42:55;;;;;;;8.45;3.13;;;;;;;;;;10487246;28;20035;-62
2023/06/12 18:47:56;;;;;;;6.75;3.17;;;;;;;;;;10487581;28;20059;-62
2023/06/12 18:52:56;;;;;;;13.30;3.50;;;;;;;;;;10488850;28;20461;-61
2023/06/12 18:57:57;;;;;;;6.95;3.17;;;;;;;;;;10487871;28;20414;-61
2023/06/12 19:02:59;;;;;;;8.25;3.13;;;;;;;;;;10487771;28;20395;-63
2023/06/12 19:08:00;;;;;;;5.78;2.78;;;;;;;;;;10484449;28;20393;-62
2023/06/12 19:13:00;;;;;;;5.97;3.20;;;;;;;;;;10480975;28;20039;-61
2023/06/12 19:18:03;;;;;;;3.13;2.70;;;;;;;;;;10480653;28;20384;-61
2023/06/12 19:23:03;;;;;;;4.53;3.22;;;;;;;;;;10475469;28;20545;-62
2023/06/12 19:28:04;;;;;;;4.43;2.50;;;;;;;;;;10493033;28;20078;-62
2023/06/12 19:33:05;;;;;;;3.00;2.75;;;;;;;;;;10494439;28;20032;-65
2023/06/12 19:38:05;;;;;;;4.00;2.90;;;;;;;;;;10491302;28;20286;-65
2023/06/12 19:43:06;;;;;;;10.45;2.63;;;;;;;;;;10488896;28;20033;-66
2023/06/12 19:48:07;;;;;;;7.88;3.10;;;;;;;;;;10482024;28;20032;-59
2023/06/12 19:53:07;;;;;;;7.95;3.20;;;;;;;;;;10489039;28;20379;-63
2023/06/12 19:58:08;;;;;;;6.95;3.28;;;;;;;;;;10478774;28;20291;-61
2023/06/12 20:03:08;;;;;;;10.68;3.35;;;;;;;;;;10477723;28;20028;-61
2023/06/12 20:08:09;;;;;;;14.25;3.35;;;;;;;;;;10466393;28;20048;-62
2023/06/12 20:13:09;;;;;;;3.83;2.63;;;;;;;;;;10476537;28;20516;-60
2023/06/12 20:18:10;;;;;;;6.75;3.35;;;;;;;;;;10468933;28;20495;-62
2023/06/12 20:23:11;;;;;;;7.75;2.72;;;;;;;;;;10467533;28;20037;-61
2023/06/12 20:28:12;;;;;;;13.30;2.65;;;;;;;;;;10462417;28;20037;-62
2023/06/12 20:33:13;;;;;;;7.78;3.42;;;;;;;;;;10484642;28;20135;-60
2023/06/12 20:38:15;;;;;;;5.75;2.97;;;;;;;;;;10492731;28;20385;-62
2023/06/12 20:43:15;;;;;;;5.85;2.83;;;;;;;;;;10493473;28;20085;-66
2023/06/12 20:48:16;;;;;;;6.97;2.80;;;;;;;;;;10493031;28;20040;-63
2023/06/12 20:53:17;;;;;;;3.83;2.70;;;;;;;;;;10492313;28;20024;-65
2023/06/12 20:58:18;;;;;;;4.55;2.70;;;;;;;;;;10494919;28;20032;-65
2023/06/12 21:03:19;;;;;;;9.35;2.88;;;;;;;;;;10494739;28;20135;-64
2023/06/12 21:08:19;;;;;;;4.18;2.92;;;;;;;;;;10487024;28;20111;-62
2023/06/12 21:13:20;;;;;;;9.93;3.30;;;;;;;;;;10496624;28;20521;-63
2023/06/12 21:18:21;;;;;;;8.82;4.10;;;;;;;;;;10491177;28;20032;-64
2023/06/12 21:23:21;;;;;;;4.00;3.60;;;;;;;;;;10493120;28;20115;-65
2023/06/12 21:28:22;;;;;;;7.07;3.50;;;;;;;;;;10492089;28;20044;-64
2023/06/12 21:33:22;;;;;;;6.25;3.60;;;;;;;;;;10491997;28;20043;-65
2023/06/12 21:38:23;;;;;;;4.88;3.30;;;;;;;;;;10491968;28;20028;-66
2023/06/12 21:43:24;;;;;;;4.05;3.35;;;;;;;;;;10481586;28;20036;-65
2023/06/12 21:48:25;;;;;;;8.65;3.67;;;;;;;;;;10490940;28;20074;-66
2023/06/12 21:53:25;;;;;;;4.30;3.17;;;;;;;;;;10491516;28;20380;-64
2023/06/12 21:58:27;;;;;;;10.38;3.15;;;;;;;;;;10491336;28;20033;-64
2023/06/12 22:03:28;;;;;;;4.80;3.50;;;;;;;;;;10491342;28;20033;-65
2023/06/12 22:08:30;;;;;;;8.80;3.00;;;;;;;;;;10489223;28;20037;-65
2023/06/12 22:13:31;;;;;;;7.38;2.90;;;;;;;;;;10489274;28;20030;-65
2023/06/12 22:18:32;;;;;;;11.02;2.70;;;;;;;;;;10491366;28;21131;-65
2023/06/12 22:23:32;;;;;;;13.50;2.75;;;;;;;;;;10491261;28;20029;-65
2023/06/12 22:28:33;;;;;;;12.48;2.90;;;;;;;;;;10490747;28;20037;-66
2023/06/12 22:33:33;;;;;;;4.00;3.17;;;;;;;;;;10487188;28;20187;-65
2023/06/12 22:38:34;;;;;;;4.22;2.90;;;;;;;;;;10500578;28;20393;-66
2023/06/12 22:43:34;;;;;;;4.70;2.88;;;;;;;;;;10492104;28;20086;-65
2023/06/12 22:48:38;;;;;;;3.47;2.92;;;;;;;;;;10482992;28;20021;-65
2023/06/12 22:53:38;;;;;;;5.82;2.80;;;;;;;;;;10489760;28;20056;-65
2023/06/12 22:58:39;;;;;;;3.38;2.72;;;;;;;;;;10490854;28;20031;-66
2023/06/12 23:03:39;;;;;;;6.00;2.97;;;;;;;;;;10491473;28;20266;-66
2023/06/12 23:08:43;;;;;;;5.93;2.95;;;;;;;;;;10491600;28;20028;-66
2023/06/12 23:13:45;;;;;;;4.43;2.80;;;;;;;;;;10492375;28;20020;-65
2023/06/12 23:18:48;;;;;;;5.30;2.80;;;;;;;;;;10491693;28;20158;-66
2023/06/12 23:23:48;;;;;;;4.13;2.70;;;;;;;;;;10491446;28;20361;-66
2023/06/12 23:28:51;;;;;;;6.53;3.20;;;;;;;;;;10491081;28;20021;-66
2023/06/12 23:33:52;;;;;;;3.45;2.90;;;;;;;;;;10491319;28;20040;-66
2023/06/12 23:38:53;;;;;;;3.13;2.80;;;;;;;;;;10490314;28;20024;-65
2023/06/12 23:43:53;;;;;;;4.40;2.50;;;;;;;;;;10490141;28;20020;-66
2023/06/12 23:48:55;;;;;;;4.75;2.90;;;;;;;;;;10490321;28;20035;-66
2023/06/12 23:53:55;;;;;;;4.32;2.70;;;;;;;;;;10489052;28;20051;-66
2023/06/12 23:58:56;;;;;;;4.55;2.35;;;;;;;;;;10476878;28;20027;-66
